Estación de Monte Patria - Chilecito
Ultimos registro cada 15 minutos 59
| N° | Estación | Fecha / Hora | Temperatura | Humedad | Lluvia | Velocidad | Dirección | Radiación | Presion |
| 59 | Monte Patria - Chilecito | 08-05-2026 14:30 | 26,7 | 17,2 | 0 | 0,5 | 351 | 193,1 | 934,7 |
| 58 | Monte Patria - Chilecito | 08-05-2026 14:15 | 26,7 | 15,6 | 0 | 0 | 326 | 543,1 | 935 |
| 57 | Monte Patria - Chilecito | 08-05-2026 14:00 | 26,6 | 16,9 | 0 | 0 | 320 | 223,1 | 935 |
| 56 | Monte Patria - Chilecito | 08-05-2026 13:45 | 26,6 | 17 | 0 | 0 | 330 | 579,4 | 935,2 |
| 55 | Monte Patria - Chilecito | 08-05-2026 13:30 | 26,1 | 16,2 | 0 | 0 | 345 | 585,6 | 935,6 |
| 54 | Monte Patria - Chilecito | 08-05-2026 13:15 | 26,1 | 18,4 | 0 | 0 | 331 | 596,9 | 935,7 |
| 53 | Monte Patria - Chilecito | 08-05-2026 13:00 | 25,2 | 17,5 | 0 | 0 | 348 | 599,4 | 935,9 |
| 52 | Monte Patria - Chilecito | 08-05-2026 12:45 | 26,1 | 17,6 | 0 | 0 | 337 | 594,4 | 936,1 |
| 51 | Monte Patria - Chilecito | 08-05-2026 12:30 | 24,4 | 19,4 | 0 | 0 | 320 | 595,6 | 936,3 |
| 50 | Monte Patria - Chilecito | 08-05-2026 12:15 | 23,8 | 21,8 | 0 | 0 | 330 | 578,1 | 936,6 |
| 49 | Monte Patria - Chilecito | 08-05-2026 12:00 | 23,6 | 24,5 | 0 | 0 | 329 | 570,6 | 936,8 |
| 48 | Monte Patria - Chilecito | 08-05-2026 11:45 | 23,7 | 21,8 | 0 | 0 | 329 | 553,1 | 936,9 |
| 47 | Monte Patria - Chilecito | 08-05-2026 11:30 | 22,7 | 21,9 | 0 | 0 | 357 | 185,6 | 937 |
| 46 | Monte Patria - Chilecito | 08-05-2026 11:15 | 21,1 | 23,9 | 0 | 0 | 358 | 76,9 | 937,2 |
| 45 | Monte Patria - Chilecito | 08-05-2026 11:00 | 20,3 | 27,9 | 0 | 0 | 336 | 74,4 | 937,3 |
| 44 | Monte Patria - Chilecito | 08-05-2026 10:45 | 20,3 | 26,4 | 0 | 0 | 279 | 480,6 | 937,5 |
| 43 | Monte Patria - Chilecito | 08-05-2026 10:30 | 19 | 29 | 0 | 0 | 275 | 461,9 | 937,4 |
| 42 | Monte Patria - Chilecito | 08-05-2026 10:15 | 19 | 28,9 | 0 | 0 | 275 | 278,1 | 937,1 |
| 41 | Monte Patria - Chilecito | 08-05-2026 10:00 | 17,6 | 32,4 | 0 | 0 | 275 | 335,6 | 937,6 |
| 40 | Monte Patria - Chilecito | 08-05-2026 09:45 | 18,5 | 31,9 | 0 | 0 | 275 | 366,9 | 937,8 |
| 39 | Monte Patria - Chilecito | 08-05-2026 09:30 | 18 | 31,7 | 0 | 0 | 275 | 136,9 | 937,9 |
| 38 | Monte Patria - Chilecito | 08-05-2026 09:15 | 16,7 | 34,1 | 0 | 0 | 275 | 134,4 | 938,1 |
| 37 | Monte Patria - Chilecito | 08-05-2026 09:00 | 16,5 | 34,3 | 0 | 0 | 250 | 215,6 | 938,3 |
| 36 | Monte Patria - Chilecito | 08-05-2026 08:45 | 15,9 | 36,4 | 0 | 0 | 248 | 81,9 | 938,2 |
| 35 | Monte Patria - Chilecito | 08-05-2026 08:30 | 14,2 | 39 | 0 | 0 | 248 | 158,1 | 938,2 |
| 34 | Monte Patria - Chilecito | 08-05-2026 08:15 | 11,6 | 44,4 | 0 | 0 | 248 | 90,6 | 938 |
| 33 | Monte Patria - Chilecito | 08-05-2026 08:00 | 10,1 | 43,3 | 0 | 0 | 248 | 36,9 | 938 |
| 32 | Monte Patria - Chilecito | 08-05-2026 07:45 | 9,3 | 44,2 | 0 | 0 | 248 | 18,1 | 937,8 |
| 31 | Monte Patria - Chilecito | 08-05-2026 07:30 | 9,1 | 45,5 | 0 | 0 | 248 | 8,1 | 937,6 |
| 30 | Monte Patria - Chilecito | 08-05-2026 07:15 | 8,7 | 46,2 | 0 | 0 | 248 | 0,6 | 937,6 |
| 29 | Monte Patria - Chilecito | 08-05-2026 07:00 | 9,2 | 44,9 | 0 | 0 | 248 | 0,6 | 937,4 |
| 28 | Monte Patria - Chilecito | 08-05-2026 06:45 | 9,8 | 44,2 | 0 | 0 | 250 | 0,6 | 937,4 |
| 27 | Monte Patria - Chilecito | 08-05-2026 06:30 | 9,5 | 45,2 | 0 | 0 | 250 | 0,6 | 937,5 |
| 26 | Monte Patria - Chilecito | 08-05-2026 06:15 | 9 | 48,9 | 0 | 0 | 250 | 0,6 | 937,3 |
| 25 | Monte Patria - Chilecito | 08-05-2026 06:00 | 8,8 | 49,7 | 0 | 0 | 250 | 0,6 | 937,5 |
| 24 | Monte Patria - Chilecito | 08-05-2026 05:45 | 8,9 | 50,3 | 0 | 0 | 250 | 0,6 | 937,5 |
| 23 | Monte Patria - Chilecito | 08-05-2026 05:30 | 9,2 | 50 | 0 | 0 | 250 | 0,6 | 937,5 |
| 22 | Monte Patria - Chilecito | 08-05-2026 05:15 | 9,5 | 47 | 0 | 0 | 250 | 0,6 | 937,4 |
| 21 | Monte Patria - Chilecito | 08-05-2026 05:00 | 10,2 | 45,4 | 0 | 0 | 250 | 0,6 | 937,3 |
| 20 | Monte Patria - Chilecito | 08-05-2026 04:45 | 10,8 | 42,9 | 0 | 0 | 250 | 0,6 | 937 |
| 19 | Monte Patria - Chilecito | 08-05-2026 04:30 | 10,4 | 44,2 | 0 | 0 | 250 | 0,6 | 937,1 |
| 18 | Monte Patria - Chilecito | 08-05-2026 04:15 | 10,1 | 45,5 | 0 | 0 | 250 | 0,6 | 937,1 |
| 17 | Monte Patria - Chilecito | 08-05-2026 04:00 | 10,2 | 45,1 | 0 | 0 | 250 | 0,6 | 937,3 |
| 16 | Monte Patria - Chilecito | 08-05-2026 03:45 | 9,9 | 47,7 | 0 | 0 | 250 | 0,6 | 937,6 |
| 15 | Monte Patria - Chilecito | 08-05-2026 03:30 | 10,6 | 45,1 | 0 | 0 | 250 | 0,6 | 937,8 |
| 14 | Monte Patria - Chilecito | 08-05-2026 03:15 | 9,6 | 49,1 | 0 | 0 | 250 | 0,6 | 937,9 |
| 13 | Monte Patria - Chilecito | 08-05-2026 03:00 | 9,7 | 48,8 | 0 | 0 | 250 | 0,6 | 938 |
| 12 | Monte Patria - Chilecito | 08-05-2026 02:45 | 10,8 | 45,7 | 0 | 0 | 250 | 0,6 | 938,1 |
| 11 | Monte Patria - Chilecito | 08-05-2026 02:30 | 11,1 | 42,6 | 0 | 0 | 248 | 0,6 | 938,3 |
| 10 | Monte Patria - Chilecito | 08-05-2026 02:15 | 11,3 | 43,7 | 0 | 0 | 248 | 0,6 | 938,3 |
| 9 | Monte Patria - Chilecito | 08-05-2026 02:00 | 10,8 | 44,8 | 0 | 0 | 248 | 0,6 | 938,4 |
| 8 | Monte Patria - Chilecito | 08-05-2026 01:45 | 11,2 | 44,5 | 0 | 0 | 248 | 0,6 | 938,4 |
| 7 | Monte Patria - Chilecito | 08-05-2026 01:30 | 11,4 | 43,6 | 0 | 0 | 248 | 0,6 | 938,4 |
| 6 | Monte Patria - Chilecito | 08-05-2026 01:15 | 12,2 | 41,4 | 0 | 0 | 248 | 0,6 | 938,4 |
| 5 | Monte Patria - Chilecito | 08-05-2026 01:00 | 12 | 41,2 | 0 | 0 | 248 | 0,6 | 938,5 |
| 4 | Monte Patria - Chilecito | 08-05-2026 00:45 | 11 | 43,3 | 0 | 0 | 248 | 0,6 | 938,7 |
| 3 | Monte Patria - Chilecito | 08-05-2026 00:30 | 11,1 | 44,4 | 0 | 0 | 248 | 0,6 | 938,9 |
| 2 | Monte Patria - Chilecito | 08-05-2026 00:15 | 11 | 43,3 | 0 | 0 | 250 | 0,6 | 939 |
| 1 | Monte Patria - Chilecito | 08-05-2026 00:00 | 11,4 | 43,9 | 0 | 0 | 248 | 0,6 | 938,8 |